Burmester, Utah
Current Conditions -  °F | °C
As of 6:53 PM on Wednesday 22 Oct 2014 (Local Time) from KSLC Reporting Station
Broken Clouds Broken Clouds  
Wind Chill: 57°   Ceiling: 22000
Heat Index: 57°   Visibility: 10mi
Dew Point: 35°   Wind: 7mph
Humidity: 44%   Direction: 310°NW
Pressure: 30.16"   Gusts: NA
Location:  40.666°N, 112.527°W
Report Text: KSLC 230053Z 31006KT 10SM FEW100 FEW150 BKN220 14/02 A3016 RMK AO2 SLP199 T01390017
Loading
Personal Weather Stations






























Interactive Weather Map
Tropical Storm Tracking
New forecast layout! Learn more

10-Day Weather Forecast

Advertisements
Track Severe Weather on mobile